Impacts TAF Board
For situational awareness. Not to be used for flight planning purposes.
IDs:

KDFW - Dallas-Ft Worth Intl, TX, US

Issued at 1120 UTC 15 Dec 2018
Updated at 1243 UTC 15 Dec 2018
Potential Impact None Slight Moderate High
Time1153Z 15/13Z 15/14Z 15/15Z 15/16Z 15/17Z 15/18Z 15/19Z 15/20Z 15/21Z 15/22Z 15/23Z 16/00Z 16/01Z>>
Type OBS PRVL PRVL PRVL PRVL PRVL PRVL PRVL PRVL PRVL PRVL PRVL PRVL PRVL
VIS 10 >6 >6 >6 >6 >6 >6 >6 >6 >6 >6 >6 >6 >6
CIG -- -- -- -- -- -- -- -- -- -- -- -- -- --
Cover CLR SKC SKC SKC SKC SKC SKC SKC SKC SKC SKC SKC SKC SKC
FltCat VFR VFR VFR VFR VFR VFR VFR VFR VFR VFR VFR VFR VFR VFR
WX -- -- -- -- -- -- -- -- -- -- -- -- -- --
WDir 310 330 330 330 330 330 330 330 330 330 330 330 330 330
WSpd 12 11 11 11 11 11 11 11 11 11 11 11 11 11
WGst -- -- -- -- -- -- -- -- -- -- -- -- -- --
Raw TAF
KDFW 151120Z 1512/1618 33011KT P6SM SKC
  FM160900 21004KT P6SM SCT250


Raw METAR
KDFW 151153Z 31012KT 10SM CLR 03/M03 A3012 RMK AO2 SLP200 T00331033 10078 20033 53005
KDFW 151053Z 33011KT 10SM CLR 04/M03 A3011 RMK AO2 SLP196 T00391033
KDFW 150953Z 33011KT 10SM CLR 05/M04 A3011 RMK AO2 SLP195 T00501039

METAR Board
Radar Display
Forecast Discussion
For situational awareness. Not to be used for flight planning purposes.